Time;durP1;ratioP1;P1;durP2;ratioP2;P2;SDS_P1;SDS_P2;PMS_P1;PMS_P2;Temp;Humidity;BMP_temperature;BMP_pressure;BME280_temperature;BME280_humidity;BME280_pressure;Samples;Min_cycle;Max_cycle;Signal;HPM_P1;HPM_P2
2023/01/05 00:00:24;;;;;;;3.05;2.17;;;;;;;19.35;56.44;96642.28;10318129;28;20128;-50
2023/01/05 00:05:58;;;;;;;3.28;2.03;;;;;;;19.35;56.37;96638.81;10329803;28;20133;-52
2023/01/05 00:22:46;;;;;;;3.78;2.03;;;;;;;19.31;56.35;96635.16;10332258;28;20059;-51
2023/01/05 00:28:06;;;;;;;3.20;1.88;;;;;;;19.30;56.16;96633.56;10329456;28;20054;-51
2023/01/05 00:33:25;;;;;;;3.25;2.10;;;;;;;19.28;56.31;96616.91;10326257;28;20069;-50
2023/01/05 00:38:44;;;;;;;2.63;2.20;;;;;;;19.28;56.30;96617.69;10329988;28;20062;-51
2023/01/05 00:44:04;;;;;;;2.47;1.80;;;;;;;19.27;56.19;96591.03;10318278;28;20062;-51
2023/01/05 00:49:24;;;;;;;2.83;1.98;;;;;;;19.26;56.29;96616.44;10332062;28;20058;-51
2023/01/05 00:54:43;;;;;;;2.80;1.70;;;;;;;19.24;56.20;96588.97;10306517;28;20477;-51
2023/01/05 01:00:05;;;;;;;2.72;2.03;;;;;;;19.23;56.34;96606.28;10331628;28;20113;-50
2023/01/05 01:05:26;;;;;;;2.58;1.80;;;;;;;19.22;56.32;96613.59;10330561;28;20423;-51
2023/01/05 01:10:45;;;;;;;3.30;1.80;;;;;;;19.20;56.23;96613.13;10329188;28;20058;-50
2023/01/05 01:16:11;;;;;;;2.42;1.73;;;;;;;19.20;56.14;96609.66;10323416;28;20502;-50
2023/01/05 01:21:30;;;;;;;2.70;1.77;;;;;;;19.17;56.21;96598.38;10331412;28;20054;-50
2023/01/05 01:26:50;;;;;;;2.92;1.90;;;;;;;19.18;56.15;96604.56;10331863;28;20062;-51
2023/01/05 01:32:10;;;;;;;2.72;1.67;;;;;;;19.16;56.17;96609.50;10304261;28;20059;-50
2023/01/05 01:37:29;;;;;;;2.35;1.77;;;;;;;19.15;56.17;96597.91;10331101;28;20062;-50
2023/01/05 01:42:50;;;;;;;1.80;1.55;;;;;;;19.12;56.16;96593.16;10330277;28;20061;-52
2023/01/05 01:48:14;;;;;;;3.10;1.88;;;;;;;19.11;56.17;96578.09;10318616;28;20058;-51
2023/01/05 01:53:36;;;;;;;1.58;1.35;;;;;;;19.11;56.30;96598.88;10326046;28;20054;-52
2023/01/05 01:58:56;;;;;;;2.03;1.58;;;;;;;19.09;56.16;96561.44;10322342;28;20058;-51
2023/01/05 02:04:17;;;;;;;2.28;1.40;;;;;;;19.08;56.04;96578.72;10336882;28;20090;-51
2023/01/05 02:09:36;;;;;;;2.85;1.80;;;;;;;19.07;56.06;96582.56;10337252;28;20109;-50
2023/01/05 02:15:16;;;;;;;1.80;1.38;;;;;;;19.06;56.06;96586.38;10311268;28;20055;-51
2023/01/05 02:21:00;;;;;;;1.55;1.25;;;;;;;19.05;56.04;96576.69;10318944;28;20058;-50
2023/01/05 02:26:41;;;;;;;1.70;1.33;;;;;;;19.04;56.00;96548.09;10332085;28;20522;-51
2023/01/05 02:32:10;;;;;;;1.35;1.02;;;;;;;19.04;56.10;96555.41;10316068;28;20042;-52
2023/01/05 02:38:14;;;;;;;1.60;1.40;;;;;;;19.02;55.92;96555.75;10336340;28;20054;-50
2023/01/05 02:43:34;;;;;;;1.88;1.50;;;;;;;19.00;55.93;96546.41;10282904;28;20042;-52
2023/01/05 02:48:55;;;;;;;2.00;1.48;;;;;;;18.99;56.04;96542.88;10335204;28;20506;-51
2023/01/05 02:54:23;;;;;;;1.75;1.27;;;;;;;18.98;55.93;96535.91;10300075;28;20066;-50
2023/01/05 02:59:46;;;;;;;1.67;1.43;;;;;;;18.96;55.99;96543.53;10302590;28;20054;-51
2023/01/05 03:05:13;;;;;;;2.08;1.38;;;;;;;18.95;55.94;96547.34;10314374;28;20419;-52
2023/01/05 03:16:40;;;;;;;1.65;1.30;;;;;;;18.95;56.06;96520.34;10319419;28;20061;-50
2023/01/05 03:39:25;;;;;;;2.13;1.08;;;;;;;18.89;55.93;96487.38;10333277;28;20058;-51
2023/01/05 03:44:45;;;;;;;1.77;1.20;;;;;;;18.88;55.87;96482.31;10333207;28;20105;-51
2023/01/05 03:50:08;;;;;;;1.35;1.10;;;;;;;18.88;55.81;96482.31;10318695;28;20073;-50
2023/01/05 03:55:28;;;;;;;1.27;1.05;;;;;;;18.87;55.87;96491.50;10332988;28;20503;-51
2023/01/05 04:00:48;;;;;;;1.60;1.00;;;;;;;18.85;55.75;96489.13;10346231;28;20510;-50
2023/01/05 04:06:10;;;;;;;2.22;1.20;;;;;;;18.84;56.03;96497.59;10331559;28;20411;-51
2023/01/05 04:11:31;;;;;;;1.38;1.10;;;;;;;18.84;55.90;96484.09;10332652;28;20061;-51
2023/01/05 04:16:55;;;;;;;2.40;1.15;;;;;;;18.82;55.83;96480.91;10319736;28;20053;-50
2023/01/05 04:22:17;;;;;;;1.27;1.00;;;;;;;18.81;55.94;96468.53;10331885;28;20066;-51
2023/01/05 04:27:36;;;;;;;1.48;1.13;;;;;;;18.78;55.93;96459.94;10332805;28;20062;-50
2023/01/05 04:32:58;;;;;;;1.40;1.30;;;;;;;18.78;56.02;96475.34;10331463;28;20058;-50
2023/01/05 04:38:18;;;;;;;1.30;1.20;;;;;;;18.76;55.82;96470.28;10317030;28;20522;-52
2023/01/05 04:43:38;;;;;;;1.20;1.10;;;;;;;18.75;55.94;96479.47;10317337;28;20383;-51
2023/01/05 04:48:58;;;;;;;1.70;1.20;;;;;;;18.74;55.95;96482.53;10311083;28;20132;-51
2023/01/05 04:54:18;;;;;;;1.17;1.08;;;;;;;18.74;55.96;96482.53;10319809;28;20109;-52
2023/01/05 04:59:39;;;;;;;2.08;1.00;;;;;;;18.73;55.85;96495.19;10331066;28;20058;-50
2023/01/05 05:04:58;;;;;;;1.15;1.02;;;;;;;18.71;56.02;96494.75;10331680;28;20058;-51
2023/01/05 05:10:19;;;;;;;1.60;1.08;;;;;;;18.70;55.84;96493.16;10312598;28;20058;-50
2023/01/05 05:15:40;;;;;;;1.00;0.90;;;;;;;18.71;55.84;96496.66;10330147;28;20059;-50
2023/01/05 05:21:00;;;;;;;1.23;0.93;;;;;;;18.69;55.87;96486.19;10329876;28;20049;-51
2023/01/05 05:26:24;;;;;;;0.95;0.88;;;;;;;18.69;55.74;96498.88;10337126;28;20065;-51
2023/01/05 05:31:44;;;;;;;1.45;0.90;;;;;;;18.69;55.85;96512.38;10324152;28;20108;-51
2023/01/05 05:37:04;;;;;;;0.80;0.80;;;;;;;18.68;55.87;96500.81;10331889;28;20058;-50
2023/01/05 05:42:23;;;;;;;1.00;0.85;;;;;;;18.68;55.94;96511.59;10338727;28;20058;-51
2023/01/05 05:47:43;;;;;;;1.38;0.90;;;;;;;18.67;55.89;96509.22;10337086;28;20063;-51
2023/01/05 05:53:02;;;;;;;2.13;0.82;;;;;;;18.66;55.96;96513.00;10332250;28;20097;-51
2023/01/05 05:58:21;;;;;;;0.85;0.73;;;;;;;18.67;55.83;96518.09;10350395;28;20050;-50
2023/01/05 06:03:40;;;;;;;0.80;0.80;;;;;;;18.67;55.81;96518.09;10338796;28;20055;-50
2023/01/05 06:09:00;;;;;;;1.00;0.90;;;;;;;18.67;55.72;96522.72;10337621;28;20062;-51
2023/01/05 06:14:19;;;;;;;1.08;1.00;;;;;;;18.68;55.99;96535.88;10336745;28;20076;-51
2023/01/05 06:19:38;;;;;;;1.08;0.90;;;;;;;18.70;56.24;96536.34;10337205;28;20113;-52
2023/01/05 06:24:58;;;;;;;1.20;0.88;;;;;;;18.71;56.25;96523.63;10335929;28;20578;-50
2023/01/05 06:30:17;;;;;;;1.00;0.90;;;;;;;18.72;56.30;96544.91;10322087;28;20419;-51
2023/01/05 06:35:36;;;;;;;1.13;0.80;;;;;;;18.73;56.33;96561.88;10335536;28;20065;-51
2023/01/05 06:40:56;;;;;;;1.13;0.80;;;;;;;18.73;56.28;96567.28;10335728;28;20062;-52
2023/01/05 06:46:16;;;;;;;2.53;0.93;;;;;;;18.73;56.33;96562.66;10335509;28;20058;-53
2023/01/05 06:51:35;;;;;;;1.10;0.73;;;;;;;18.73;56.33;96568.06;10330078;28;20054;-51
2023/01/05 06:56:55;;;;;;;0.90;0.70;;;;;;;18.73;56.27;96573.47;10335869;28;20065;-52
2023/01/05 07:02:15;;;;;;;2.38;0.80;;;;;;;18.74;56.26;96576.97;10348260;28;20499;-51
2023/01/05 07:07:35;;;;;;;0.85;0.70;;;;;;;18.74;56.45;96568.88;10334602;28;20109;-52
2023/01/05 07:12:55;;;;;;;0.88;0.80;;;;;;;18.76;56.33;96582.84;10335025;28;20058;-51
2023/01/05 07:18:15;;;;;;;0.88;0.85;;;;;;;18.76;56.21;96572.03;10334929;28;20065;-53
2023/01/05 07:23:37;;;;;;;0.82;0.73;;;;;;;18.77;56.15;96565.50;10334770;28;20046;-51
2023/01/05 07:28:57;;;;;;;0.80;0.80;;;;;;;18.77;56.08;96574.41;10334915;28;20065;-53
2023/01/05 07:34:18;;;;;;;2.47;0.77;;;;;;;18.78;56.07;96592.19;10347186;28;20105;-52
2023/01/05 07:39:37;;;;;;;0.82;0.70;;;;;;;18.80;55.98;96605.38;10347154;28;20046;-52
2023/01/05 07:44:56;;;;;;;0.70;0.70;;;;;;;18.81;55.79;96606.16;10332756;28;20050;-51
2023/01/05 07:50:16;;;;;;;0.80;0.80;;;;;;;18.84;56.04;96610.94;10333324;28;20460;-52
2023/01/05 07:55:36;;;;;;;0.73;0.73;;;;;;;18.84;56.13;96610.94;10330380;28;20050;-52
2023/01/05 08:00:55;;;;;;;0.73;0.70;;;;;;;18.87;56.14;96615.66;10346428;28;20065;-52
2023/01/05 08:06:17;;;;;;;1.35;0.60;;;;;;;18.88;55.94;96633.47;10333131;28;20074;-52
2023/01/05 08:11:37;;;;;;;1.00;0.88;;;;;;;18.90;56.06;96642.03;10310865;28;20533;-52
2023/01/05 08:16:56;;;;;;;1.23;0.73;;;;;;;18.91;55.93;96649.78;10292914;28;20054;-52
2023/01/05 08:22:16;;;;;;;0.90;0.75;;;;;;;18.92;56.03;96654.06;10292769;28;20059;-53
2023/01/05 08:27:35;;;;;;;0.60;0.60;;;;;;;18.95;55.24;96663.44;10291763;28;20073;-51
2023/01/05 08:32:54;;;;;;;2.20;0.80;;;;;;;18.96;55.71;96667.72;10292389;28;20050;-52
2023/01/05 08:38:14;;;;;;;1.17;0.80;;;;;;;18.97;55.33;96674.69;10305408;28;20054;-50
2023/01/05 08:43:33;;;;;;;2.15;0.63;;;;;;;18.99;55.33;96679.78;10290892;28;20067;-49
2023/01/05 08:48:55;;;;;;;1.42;0.73;;;;;;;18.99;55.47;96688.66;10292093;28;20080;-49
2023/01/05 08:54:14;;;;;;;1.63;0.70;;;;;;;19.01;55.52;96697.22;10292395;28;20059;-54
2023/01/05 08:59:34;;;;;;;0.70;0.70;;;;;;;19.03;55.68;96703.09;10296937;28;20451;-50
2023/01/05 09:04:53;;;;;;;2.85;0.70;;;;;;;19.05;55.56;96711.69;10311835;28;20411;-51
2023/01/05 09:10:13;;;;;;;2.85;0.90;;;;;;;19.08;55.60;96734.53;10298804;28;20526;-50
2023/01/05 09:15:34;;;;;;;4.25;0.80;;;;;;;19.10;55.62;96738.50;10317274;28;20062;-50
2023/01/05 09:20:54;;;;;;;0.70;0.70;;;;;;;19.11;55.63;96744.69;10312499;28;20062;-51
2023/01/05 09:26:15;;;;;;;4.07;0.80;;;;;;;19.12;56.07;96752.47;10338777;28;20062;-53
2023/01/05 09:31:34;;;;;;;2.88;0.68;;;;;;;19.16;55.85;96764.22;10319730;28;20130;-50
2023/01/05 09:36:54;;;;;;;1.80;0.85;;;;;;;19.16;55.83;96761.50;10332062;28;20426;-52
2023/01/05 09:42:20;;;;;;;1.65;0.82;;;;;;;19.19;55.55;96767.38;10338282;28;20134;-48
2023/01/05 09:47:41;;;;;;;2.55;0.90;;;;;;;19.20;55.65;96768.97;10314470;28;20058;-52
2023/01/05 09:53:01;;;;;;;2.47;0.75;;;;;;;19.21;55.70;96765.16;10333055;28;20050;-52
2023/01/05 09:58:23;;;;;;;4.43;0.80;;;;;;;19.23;55.79;96760.22;10310516;28;20058;-51
2023/01/05 10:03:53;;;;;;;1.98;0.80;;;;;;;19.25;55.86;96763.38;10326210;28;20058;-51
2023/01/05 10:09:20;;;;;;;1.77;0.90;;;;;;;19.26;55.81;96751.47;10337199;28;20062;-50
2023/01/05 10:14:44;;;;;;;3.88;1.50;;;;;;;19.27;56.05;96758.47;10327927;28;20419;-51
2023/01/05 10:20:13;;;;;;;7.40;3.47;;;;;;;19.28;56.54;96763.53;10311032;28;20065;-48
2023/01/05 10:25:58;;;;;;;84.80;35.28;;;;;;;19.30;57.03;96758.59;10320103;28;20054;-52
2023/01/05 10:31:22;;;;;;;50.08;16.33;;;;;;;19.32;57.72;96761.78;10321506;28;20055;-49
2023/01/05 10:36:52;;;;;;;32.33;11.38;;;;;;;19.35;58.10;96761.13;10333615;28;20175;-52
2023/01/05 10:42:15;;;;;;;28.10;10.57;;;;;;;19.36;58.58;96746.50;10332042;28;20054;-51
2023/01/05 10:47:36;;;;;;;20.17;9.20;;;;;;;19.39;59.16;96744.31;10317530;28;20062;-54
2023/01/05 10:52:56;;;;;;;24.65;9.60;;;;;;;19.41;59.65;96759.06;10320416;28;20573;-58
2023/01/05 10:58:23;;;;;;;22.73;7.68;;;;;;;19.44;58.95;96765.72;10320759;28;20069;-50
2023/01/05 11:03:46;;;;;;;20.10;7.10;;;;;;;19.44;58.30;96768.41;10308289;28;20065;-51
2023/01/05 11:09:16;;;;;;;19.58;6.78;;;;;;;19.45;58.53;96765.41;10298569;28;20073;-51
2023/01/05 11:14:41;;;;;;;17.90;6.45;;;;;;;19.46;58.30;96777.00;10334381;28;20427;-52
2023/01/05 11:20:02;;;;;;;16.08;5.57;;;;;;;19.49;58.35;96773.66;10295307;28;20541;-51
2023/01/05 11:25:24;;;;;;;17.00;5.25;;;;;;;19.50;57.95;96778.75;10311316;28;20054;-50
2023/01/05 11:30:53;;;;;;;16.48;5.28;;;;;;;19.51;58.00;96766.78;10331218;28;20062;-52
2023/01/05 11:36:13;;;;;;;14.35;5.13;;;;;;;19.52;58.07;96776.50;10329706;28;20414;-53
2023/01/05 11:41:33;;;;;;;14.43;4.32;;;;;;;19.52;58.16;96781.91;10325692;28;20061;-52
2023/01/05 11:47:01;;;;;;;12.37;4.80;;;;;;;19.53;58.04;96778.06;10582809;27;19916;-51
2023/01/05 11:52:49;;;;;;;10.23;4.35;;;;;;;19.55;58.36;96777.75;10573925;28;20048;-51
2023/01/05 11:58:18;;;;;;;12.35;3.80;;;;;;;19.58;58.27;96790.59;10559782;28;20446;-51
2023/01/05 12:04:02;;;;;;;12.05;3.97;;;;;;;19.58;58.22;96774.38;10586712;28;20043;-53
2023/01/05 12:09:30;;;;;;;10.10;3.88;;;;;;;19.61;57.89;96784.56;10581188;28;20089;-53
2023/01/05 12:15:10;;;;;;;7.13;3.10;;;;;;;19.62;57.62;96779.94;10543844;28;20052;-53
2023/01/05 12:21:01;;;;;;;7.40;2.67;;;;;;;19.59;53.58;96788.72;10564661;28;20511;-53
2023/01/05 12:26:27;;;;;;;7.00;1.80;;;;;;;19.56;50.61;96804.47;10577093;28;20043;-53
2023/01/05 12:31:47;;;;;;;4.63;1.52;;;;;;;19.51;47.26;96799.22;10552176;28;20051;-54
2023/01/05 12:37:27;;;;;;;4.30;1.20;;;;;;;19.44;45.43;96798.13;10558082;28;20067;-53
2023/01/05 12:42:57;;;;;;;3.03;1.05;;;;;;;19.39;44.17;96814.53;10582401;28;20044;-55
2023/01/05 12:48:20;;;;;;;2.92;0.90;;;;;;;19.33;43.54;96817.41;10609079;27;20054;-54
2023/01/05 12:53:47;;;;;;;4.07;1.00;;;;;;;19.31;43.51;96818.84;10612620;28;20384;-53
2023/01/05 12:59:22;;;;;;;1.65;0.80;;;;;;;19.26;41.95;96797.41;10566168;28;20105;-53
2023/01/05 13:04:50;;;;;;;2.47;0.85;;;;;;;19.22;42.39;96799.16;10568665;28;20048;-53
2023/01/05 13:10:32;;;;;;;2.30;0.80;;;;;;;19.24;42.17;96802.31;10565679;28;20048;-54
2023/01/05 13:16:04;;;;;;;1.52;0.73;;;;;;;19.18;40.91;96799.00;10558036;28;20048;-54
2023/01/05 13:21:25;;;;;;;3.15;0.90;;;;;;;19.20;43.56;96802.19;10571901;28;20052;-54
2023/01/05 13:26:45;;;;;;;3.78;0.80;;;;;;;19.25;43.71;96810.13;10580957;28;20048;-55
2023/01/05 13:32:07;;;;;;;3.08;0.80;;;;;;;19.30;44.97;96817.25;10570233;28;20435;-54
2023/01/05 13:37:42;;;;;;;1.95;0.90;;;;;;;19.36;45.82;96813.25;10581306;28;20056;-53
2023/01/05 13:43:15;;;;;;;3.35;0.95;;;;;;;19.38;46.68;96808.31;10568727;28;20521;-52
2023/01/05 13:49:14;;;;;;;3.03;0.98;;;;;;;19.42;47.36;96830.09;10562810;28;20109;-54
2023/01/05 13:54:46;;;;;;;1.40;0.80;;;;;;;19.44;48.24;96838.66;10563463;28;20506;-55
2023/01/05 14:00:15;;;;;;;3.22;1.10;;;;;;;19.45;48.71;96827.53;10558393;28;20063;-54
2023/01/05 14:05:53;;;;;;;2.13;0.90;;;;;;;19.49;49.35;96830.41;10578019;28;20488;-55
2023/01/05 14:11:24;;;;;;;6.43;1.07;;;;;;;19.48;49.77;96826.91;10558559;28;20411;-55
2023/01/05 14:16:46;;;;;;;1.90;0.75;;;;;;;19.49;50.18;96831.19;10572898;28;20101;-55
2023/01/05 14:22:21;;;;;;;2.05;0.77;;;;;;;19.51;50.77;96844.38;10573813;28;20052;-56
2023/01/05 14:28:19;;;;;;;2.10;0.90;;;;;;;19.52;51.23;96848.66;10579505;28;20056;-55
2023/01/05 14:33:48;;;;;;;2.27;0.80;;;;;;;19.53;51.45;96863.75;10575191;28;20051;-54
2023/01/05 14:39:17;;;;;;;3.20;0.85;;;;;;;19.54;51.73;96876.94;10603923;27;20046;-55
2023/01/05 14:44:39;;;;;;;;;;;;;;;19.53;52.31;96869.16;10578405;28;20059;-54
2023/01/05 14:50:03;;;;;;;1.02;0.70;;;;;;;19.55;52.34;96875.81;10567119;28;20280;-55
2023/01/05 14:55:26;;;;;;;1.38;0.80;;;;;;;19.54;52.61;96890.47;10566188;28;20048;-55
2023/01/05 15:00:57;;;;;;;4.65;0.80;;;;;;;19.56;52.88;96900.91;10561233;28;20058;-56
2023/01/05 15:06:21;;;;;;;2.00;0.75;;;;;;;19.56;53.06;96907.16;10551389;28;20059;-55
2023/01/05 15:12:17;;;;;;;2.78;0.85;;;;;;;19.57;53.43;96899.81;10585613;28;20484;-54
2023/01/05 15:17:47;;;;;;;3.92;1.00;;;;;;;19.58;52.22;96916.81;10547070;28;20067;-52
2023/01/05 15:23:28;;;;;;;3.03;0.80;;;;;;;19.58;52.44;96919.53;10583452;28;20031;-53
2023/01/05 15:29:25;;;;;;;3.35;0.73;;;;;;;19.59;52.98;96923.84;10576824;28;20491;-53
2023/01/05 15:34:51;;;;;;;1.30;0.63;;;;;;;19.60;53.35;96928.09;10576949;28;20056;-53
2023/01/05 15:40:14;;;;;;;1.17;0.60;;;;;;;19.60;53.58;96933.50;10552464;28;20059;-53
2023/01/05 15:45:36;;;;;;;2.25;0.95;;;;;;;19.62;53.95;96950.19;10548451;28;20044;-53
2023/01/05 15:50:57;;;;;;;1.17;0.63;;;;;;;19.62;54.21;96950.19;10564542;28;20605;-53
2023/01/05 15:56:31;;;;;;;1.33;0.80;;;;;;;19.64;54.38;96956.06;10570705;28;20071;-52
2023/01/05 16:01:50;;;;;;;2.40;0.60;;;;;;;19.64;54.46;96956.06;10571463;28;20051;-52
2023/01/05 16:07:10;;;;;;;1.30;0.60;;;;;;;19.66;54.61;96959.25;10572386;28;20598;-53
2023/01/05 16:12:30;;;;;;;1.67;0.75;;;;;;;19.66;54.74;96987.09;10575080;28;20106;-53
2023/01/05 16:17:52;;;;;;;1.13;0.70;;;;;;;19.67;54.84;96982.47;10557061;28;20051;-53
2023/01/05 16:23:21;;;;;;;1.25;0.75;;;;;;;19.67;55.09;96983.25;10567759;28;20403;-52
2023/01/05 16:28:40;;;;;;;;;;;;;;;19.68;54.96;96974.06;10573293;28;20059;-53
2023/01/05 16:34:15;;;;;;;1.70;0.60;;;;;;;19.68;54.85;96974.06;10583378;28;20394;-53
2023/01/05 16:39:39;;;;;;;1.10;0.60;;;;;;;19.69;54.88;96991.06;10575584;28;20051;-54
2023/01/05 16:44:58;;;;;;;1.20;0.70;;;;;;;19.69;54.97;97001.88;10583130;28;20070;-54
2023/01/05 16:50:18;;;;;;;1.10;0.75;;;;;;;19.69;55.07;97010.75;10576541;28;20048;-53
2023/01/05 16:55:38;;;;;;;0.93;0.60;;;;;;;19.71;55.34;97005.03;10580368;28;20059;-54
2023/01/05 17:01:18;;;;;;;1.10;0.70;;;;;;;19.71;55.51;97011.25;10576611;28;20051;-53
2023/01/05 17:06:40;;;;;;;1.15;0.57;;;;;;;19.72;55.43;97009.38;10580740;28;20057;-52
2023/01/05 17:12:00;;;;;;;1.13;0.63;;;;;;;19.72;55.47;97020.19;10588878;28;20046;-53
2023/01/05 17:17:19;;;;;;;2.10;0.60;;;;;;;19.73;55.58;97035.28;10565928;28;20051;-48
2023/01/05 17:22:39;;;;;;;1.85;0.52;;;;;;;19.74;55.64;97026.06;10581882;28;20051;-53
2023/01/05 17:27:58;;;;;;;6.05;1.88;;;;;;;19.75;55.98;97033.03;10587419;28;20044;-53
2023/01/05 17:33:18;;;;;;;119.70;30.20;;;;;;;19.76;56.20;97034.66;10577973;28;20058;-53
2023/01/05 17:38:37;;;;;;;29.02;8.75;;;;;;;19.78;56.23;97047.81;10593092;28;20547;-54
2023/01/05 17:43:57;;;;;;;20.63;6.25;;;;;;;19.80;56.39;97056.41;10560398;28;20063;-54
2023/01/05 17:49:19;;;;;;;17.77;5.35;;;;;;;19.79;56.43;97066.44;10576251;28;20059;-54
2023/01/05 17:54:39;;;;;;;13.95;4.68;;;;;;;19.80;56.64;97072.63;10572165;28;20495;-53
2023/01/05 17:59:59;;;;;;;15.52;5.22;;;;;;;19.81;56.70;97075.03;10569037;28;20055;-53
2023/01/05 18:05:18;;;;;;;15.27;4.88;;;;;;;19.82;56.89;97067.72;10583544;28;20044;-53
2023/01/05 18:10:39;;;;;;;11.75;4.05;;;;;;;19.82;56.86;97081.25;10585569;28;20047;-53
2023/01/05 18:16:03;;;;;;;12.13;4.32;;;;;;;19.83;57.09;97089.00;10559411;28;20048;-53
2023/01/05 18:21:23;;;;;;;10.23;3.55;;;;;;;19.82;57.00;97102.88;10579052;28;20507;-54
2023/01/05 18:26:42;;;;;;;15.20;3.90;;;;;;;-146.19;100.00;65364.44;10579212;28;20052;-59
2023/01/05 18:32:02;;;;;;;13.40;3.50;;;;;;;-146.19;100.00;65364.44;10562818;28;20074;-61
2023/01/05 18:37:22;;;;;;;10.25;3.55;;;;;;;19.82;57.00;97102.88;10540124;28;20052;-59
2023/01/05 18:42:42;;;;;;;13.35;3.38;;;;;;;19.83;57.41;97121.44;10586557;28;20040;-61
2023/01/05 18:48:02;;;;;;;8.15;3.38;;;;;;;19.83;57.67;97124.16;10572814;28;20431;-63
2023/01/05 18:53:22;;;;;;;10.45;3.15;;;;;;;19.83;57.79;97128.78;10581041;28;20055;-60
2023/01/05 18:58:42;;;;;;;8.02;2.88;;;;;;;19.82;57.78;97138.00;10563465;28;20052;-53
2023/01/05 19:04:02;;;;;;;11.07;3.50;;;;;;;19.83;57.85;97148.50;10566660;28;20032;-53
2023/01/05 19:09:21;;;;;;;6.32;2.85;;;;;;;19.84;58.08;97143.91;10551716;28;20055;-59
2023/01/05 19:14:40;;;;;;;9.63;2.92;;;;;;;19.85;58.13;97150.88;10560355;28;20047;-60
2023/01/05 19:20:01;;;;;;;10.13;3.00;;;;;;;19.86;58.13;97158.69;10559477;28;20110;-66
2023/01/05 19:25:21;;;;;;;9.13;2.95;;;;;;;19.86;58.21;97153.28;10563411;28;20507;-60
2023/01/05 19:30:40;;;;;;;11.52;2.95;;;;;;;19.88;58.35;97159.16;10566334;28;20077;-60
2023/01/05 19:36:13;;;;;;;6.22;2.45;;;;;;;19.87;58.20;97170.28;10584498;28;20065;-59
2023/01/05 19:41:32;;;;;;;7.30;2.72;;;;;;;19.87;58.42;97176.47;10545255;28;20125;-58
2023/01/05 19:46:52;;;;;;;9.43;2.67;;;;;;;19.88;58.48;97171.91;10574712;28;20048;-57
2023/01/05 19:52:12;;;;;;;7.00;2.88;;;;;;;19.87;58.81;97171.06;10566184;28;20066;-59
2023/01/05 19:57:32;;;;;;;8.07;2.80;;;;;;;19.88;59.22;97174.59;10558711;28;20104;-58
2023/01/05 20:02:51;;;;;;;5.72;2.53;;;;;;;19.89;59.19;97176.16;10559473;28;20101;-59
2023/01/05 20:08:11;;;;;;;8.77;2.55;;;;;;;19.90;59.09;97183.97;10571024;28;20052;-59
2023/01/05 20:13:31;;;;;;;7.65;2.63;;;;;;;19.91;59.09;97184.75;10582973;28;20054;-59
2023/01/05 20:18:51;;;;;;;5.65;2.47;;;;;;;19.91;59.25;97185.56;10568765;28;20052;-65
2023/01/05 20:24:32;;;;;;;7.65;2.60;;;;;;;19.92;59.30;97187.16;10580620;28;20507;-59
2023/01/05 20:29:53;;;;;;;6.75;2.35;;;;;;;19.92;59.42;97192.56;10575862;28;20059;-60
2023/01/05 20:35:13;;;;;;;8.05;2.40;;;;;;;19.94;59.52;97201.16;10579735;28;20478;-65
2023/01/05 20:40:33;;;;;;;6.78;2.78;;;;;;;19.94;59.46;97213.88;10598612;28;20479;-61
2023/01/05 20:45:52;;;;;;;4.97;2.00;;;;;;;19.93;59.65;97218.50;10582063;28;20058;-62
2023/01/05 20:51:13;;;;;;;6.35;2.30;;;;;;;19.94;59.65;97227.41;10585317;28;20036;-56
2023/01/05 20:56:37;;;;;;;6.38;2.03;;;;;;;19.96;59.56;97233.28;10581760;28;20423;-56
2023/01/05 21:01:59;;;;;;;6.68;2.20;;;;;;;19.97;59.49;97248.38;10581637;28;20509;-56
2023/01/05 21:07:19;;;;;;;5.40;1.88;;;;;;;19.98;59.37;97249.22;10592836;28;20035;-57
2023/01/05 21:12:39;;;;;;;3.28;1.60;;;;;;;19.99;59.61;97253.50;10558402;28;20048;-57
2023/01/05 21:17:58;;;;;;;4.30;2.00;;;;;;;20.00;59.53;97263.22;10543971;28;20048;-55
2023/01/05 21:23:19;;;;;;;5.03;2.00;;;;;;;19.99;59.66;97254.28;10578412;28;20036;-54
2023/01/05 21:28:39;;;;;;;5.40;1.75;;;;;;;20.00;59.51;97257.81;10563349;28;20059;-56
2023/01/05 21:33:59;;;;;;;5.03;1.65;;;;;;;20.00;59.12;97268.63;10543002;28;20059;-51
2023/01/05 21:39:21;;;;;;;3.03;1.75;;;;;;;19.99;59.25;97285.94;10573156;28;20047;-51
2023/01/05 21:44:40;;;;;;;4.65;1.88;;;;;;;19.96;59.17;97279.25;10573214;28;20056;-52
2023/01/05 21:50:01;;;;;;;4.57;1.85;;;;;;;19.96;59.09;97284.66;10583021;28;20044;-53
2023/01/05 22:01:02;;;;;;;3.72;1.80;;;;;;;19.97;59.24;97280.06;10542548;28;20054;-52
2023/01/05 22:06:22;;;;;;;4.13;1.50;;;;;;;19.96;59.19;97279.25;10577172;28;20047;-52
2023/01/05 22:11:41;;;;;;;3.60;1.70;;;;;;;19.96;59.07;97276.56;10577088;28;20051;-52
2023/01/05 22:17:01;;;;;;;4.05;1.73;;;;;;;19.94;59.03;97278.78;10551562;28;20052;-52
2023/01/05 22:22:21;;;;;;;3.53;1.70;;;;;;;19.94;58.91;97284.19;10549122;28;20055;-52
2023/01/05 22:27:41;;;;;;;4.00;1.85;;;;;;;19.94;59.02;97290.38;10581326;28;20059;-52
2023/01/05 22:33:01;;;;;;;3.83;1.67;;;;;;;19.93;59.01;97299.63;10577071;28;20446;-53
2023/01/05 22:38:20;;;;;;;4.18;2.10;;;;;;;19.92;59.07;97303.44;10540812;28;20052;-53
2023/01/05 22:43:41;;;;;;;3.55;1.80;;;;;;;19.91;59.00;97307.22;10578743;28;20052;-51
2023/01/05 22:49:00;;;;;;;3.25;1.85;;;;;;;19.90;58.96;97305.66;10571878;28;20522;-52
2023/01/05 22:54:20;;;;;;;3.22;1.75;;;;;;;19.89;58.76;97301.34;10553439;28;20406;-51
2023/01/05 22:59:40;;;;;;;4.25;1.83;;;;;;;19.89;58.80;97303.25;10578471;28;20487;-53
2023/01/05 23:04:59;;;;;;;3.80;1.70;;;;;;;19.87;58.82;97313.59;10538562;28;20047;-53
2023/01/05 23:10:18;;;;;;;4.15;1.90;;;;;;;19.88;58.83;97315.19;10565650;28;20105;-52
2023/01/05 23:15:38;;;;;;;3.08;1.70;;;;;;;19.86;58.79;97329.03;10564514;28;20052;-52
2023/01/05 23:20:59;;;;;;;3.25;1.50;;;;;;;19.86;58.86;97325.53;10574587;28;20105;-52
2023/01/05 23:26:19;;;;;;;3.13;1.50;;;;;;;19.84;58.77;97320.44;10564604;28;20048;-52
2023/01/05 23:31:39;;;;;;;3.78;1.58;;;;;;;19.83;58.73;97324.22;10579502;28;20392;-52
2023/01/05 23:36:59;;;;;;;2.42;1.50;;;;;;;19.83;58.79;97326.94;10567158;28;20051;-53
2023/01/05 23:47:56;;;;;;;3.03;1.33;;;;;;;19.80;58.69;97305.13;10551203;28;20109;-51
2023/01/05 23:53:15;;;;;;;2.83;1.60;;;;;;;19.80;58.75;97302.41;10573602;28;20055;-52
2023/01/05 23:58:35;;;;;;;2.85;1.40;;;;;;;19.79;58.74;97304.34;10567940;28;20055;-52
